sensor_id;sensor_type;location;lat;lon;timestamp;pressure;altitude;pressure_sealevel;temperature;humidity
28448;BME280;15675;52.870;-1.416;2023-04-02T00:02:34;101490.47;;;8.94;100.00
28448;BME280;15675;52.870;-1.416;2023-04-02T00:07:49;101485.31;;;8.94;100.00
28448;BME280;15675;52.870;-1.416;2023-04-02T00:10:45;101491.84;;;8.78;100.00
28448;BME280;15675;52.870;-1.416;2023-04-02T00:15:43;101491.75;;;8.75;100.00
28448;BME280;15675;52.870;-1.416;2023-04-02T00:18:15;101494.59;;;8.49;100.00
28448;BME280;15675;52.870;-1.416;2023-04-02T00:20:58;101498.56;;;8.70;100.00
28448;BME280;15675;52.870;-1.416;2023-04-02T00:23:25;101503.81;;;8.73;100.00
28448;BME280;15675;52.870;-1.416;2023-04-02T00:25:51;101509.91;;;8.41;100.00
28448;BME280;15675;52.870;-1.416;2023-04-02T00:28:20;101513.31;;;8.40;100.00
28448;BME280;15675;52.870;-1.416;2023-04-02T00:30:49;101515.38;;;8.52;100.00
28448;BME280;15675;52.870;-1.416;2023-04-02T00:33:21;101521.75;;;8.65;100.00
28448;BME280;15675;52.870;-1.416;2023-04-02T00:35:48;101523.66;;;8.40;100.00
28448;BME280;15675;52.870;-1.416;2023-04-02T00:38:19;101523.31;;;8.26;100.00
28448;BME280;15675;52.870;-1.416;2023-04-02T00:40:48;101523.72;;;8.08;100.00
28448;BME280;15675;52.870;-1.416;2023-04-02T00:43:14;101532.06;;;8.32;100.00
28448;BME280;15675;52.870;-1.416;2023-04-02T00:45:42;101544.91;;;8.27;100.00
28448;BME280;15675;52.870;-1.416;2023-04-02T00:51:22;101552.91;;;8.38;100.00
28448;BME280;15675;52.870;-1.416;2023-04-02T00:53:51;101546.31;;;8.48;100.00
28448;BME280;15675;52.870;-1.416;2023-04-02T00:56:25;101542.44;;;8.32;100.00
28448;BME280;15675;52.870;-1.416;2023-04-02T00:58:55;101547.78;;;8.71;100.00
28448;BME280;15675;52.870;-1.416;2023-04-02T01:01:34;101552.50;;;8.53;100.00
28448;BME280;15675;52.870;-1.416;2023-04-02T01:04:02;101556.50;;;8.43;100.00
28448;BME280;15675;52.870;-1.416;2023-04-02T01:06:35;101555.47;;;8.36;100.00
28448;BME280;15675;52.870;-1.416;2023-04-02T01:16:54;101572.28;;;8.52;100.00
28448;BME280;15675;52.870;-1.416;2023-04-02T01:22:06;101564.25;;;8.41;100.00
28448;BME280;15675;52.870;-1.416;2023-04-02T01:24:34;101582.47;;;8.44;100.00
28448;BME280;15675;52.870;-1.416;2023-04-02T01:27:17;101577.41;;;8.49;100.00
28448;BME280;15675;52.870;-1.416;2023-04-02T01:29:56;101584.03;;;8.73;100.00
28448;BME280;15675;52.870;-1.416;2023-04-02T01:32:25;101579.91;;;8.79;100.00
28448;BME280;15675;52.870;-1.416;2023-04-02T01:34:54;101590.41;;;8.86;100.00
28448;BME280;15675;52.870;-1.416;2023-04-02T01:37:57;101589.72;;;9.29;100.00
28448;BME280;15675;52.870;-1.416;2023-04-02T01:43:57;101587.38;;;9.04;100.00
28448;BME280;15675;52.870;-1.416;2023-04-02T01:46:10;101592.06;;;9.20;100.00
28448;BME280;15675;52.870;-1.416;2023-04-02T01:48:48;101594.97;;;8.96;100.00
28448;BME280;15675;52.870;-1.416;2023-04-02T01:51:25;101597.44;;;8.91;100.00
28448;BME280;15675;52.870;-1.416;2023-04-02T01:53:52;101604.50;;;8.97;100.00
28448;BME280;15675;52.870;-1.416;2023-04-02T01:56:18;101601.16;;;8.68;100.00
28448;BME280;15675;52.870;-1.416;2023-04-02T01:58:44;101611.78;;;8.78;100.00
28448;BME280;15675;52.870;-1.416;2023-04-02T02:01:18;101614.38;;;8.78;100.00
28448;BME280;15675;52.870;-1.416;2023-04-02T02:03:46;101615.91;;;8.38;100.00
28448;BME280;15675;52.870;-1.416;2023-04-02T02:06:15;101626.97;;;8.64;100.00
28448;BME280;15675;52.870;-1.416;2023-04-02T02:08:49;101618.88;;;8.52;100.00
28448;BME280;15675;52.870;-1.416;2023-04-02T02:11:23;101625.28;;;9.00;100.00
28448;BME280;15675;52.870;-1.416;2023-04-02T02:14:15;101634.53;;;8.57;100.00
28448;BME280;15675;52.870;-1.416;2023-04-02T02:16:42;101640.63;;;8.59;100.00
28448;BME280;15675;52.870;-1.416;2023-04-02T02:24:52;101638.22;;;8.65;100.00
28448;BME280;15675;52.870;-1.416;2023-04-02T02:30:01;101648.84;;;8.13;100.00
28448;BME280;15675;52.870;-1.416;2023-04-02T02:32:30;101654.84;;;8.43;100.00
28448;BME280;15675;52.870;-1.416;2023-04-02T02:35:05;101653.84;;;8.70;100.00
28448;BME280;15675;52.870;-1.416;2023-04-02T02:37:36;101665.56;;;8.55;100.00
28448;BME280;15675;52.870;-1.416;2023-04-02T02:40:10;101663.91;;;8.59;100.00
28448;BME280;15675;52.870;-1.416;2023-04-02T02:42:40;101657.34;;;8.72;100.00
28448;BME280;15675;52.870;-1.416;2023-04-02T02:45:19;101659.09;;;8.73;100.00
28448;BME280;15675;52.870;-1.416;2023-04-02T02:47:47;101668.03;;;8.84;100.00
28448;BME280;15675;52.870;-1.416;2023-04-02T02:50:26;101680.22;;;8.56;100.00
28448;BME280;15675;52.870;-1.416;2023-04-02T02:52:57;101678.47;;;8.54;100.00
28448;BME280;15675;52.870;-1.416;2023-04-02T02:55:33;101681.44;;;8.69;100.00
28448;BME280;15675;52.870;-1.416;2023-04-02T02:58:14;101685.38;;;8.55;100.00
28448;BME280;15675;52.870;-1.416;2023-04-02T03:00:41;101690.78;;;8.62;100.00
28448;BME280;15675;52.870;-1.416;2023-04-02T03:03:10;101697.06;;;8.72;100.00
28448;BME280;15675;52.870;-1.416;2023-04-02T03:05:41;101703.78;;;8.35;100.00
28448;BME280;15675;52.870;-1.416;2023-04-02T03:08:29;101713.81;;;8.24;100.00
28448;BME280;15675;52.870;-1.416;2023-04-02T03:11:04;101710.34;;;8.53;100.00
28448;BME280;15675;52.870;-1.416;2023-04-02T03:13:36;101717.00;;;8.44;100.00
28448;BME280;15675;52.870;-1.416;2023-04-02T03:16:32;101713.66;;;8.49;100.00
28448;BME280;15675;52.870;-1.416;2023-04-02T03:22:15;101727.47;;;8.49;100.00
28448;BME280;15675;52.870;-1.416;2023-04-02T03:25:00;101735.06;;;8.14;100.00
28448;BME280;15675;52.870;-1.416;2023-04-02T03:27:34;101745.47;;;8.16;100.00
28448;BME280;15675;52.870;-1.416;2023-04-02T03:32:53;101750.75;;;8.20;100.00
28448;BME280;15675;52.870;-1.416;2023-04-02T03:35:40;101752.47;;;7.91;100.00
28448;BME280;15675;52.870;-1.416;2023-04-02T03:38:19;101756.38;;;8.05;100.00
28448;BME280;15675;52.870;-1.416;2023-04-02T03:41:00;101756.16;;;7.99;100.00
28448;BME280;15675;52.870;-1.416;2023-04-02T03:43:32;101764.44;;;8.16;100.00
28448;BME280;15675;52.870;-1.416;2023-04-02T03:46:10;101767.41;;;8.00;100.00
28448;BME280;15675;52.870;-1.416;2023-04-02T03:48:40;101766.78;;;7.80;100.00
28448;BME280;15675;52.870;-1.416;2023-04-02T03:51:35;101773.47;;;8.02;100.00
28448;BME280;15675;52.870;-1.416;2023-04-02T03:54:03;101767.16;;;7.65;100.00
28448;BME280;15675;52.870;-1.416;2023-04-02T03:56:31;101769.28;;;7.78;100.00
28448;BME280;15675;52.870;-1.416;2023-04-02T04:01:41;101780.03;;;7.63;100.00
28448;BME280;15675;52.870;-1.416;2023-04-02T04:04:15;101787.09;;;7.96;100.00
28448;BME280;15675;52.870;-1.416;2023-04-02T04:06:44;101790.00;;;7.52;100.00
28448;BME280;15675;52.870;-1.416;2023-04-02T04:09:32;101806.16;;;7.47;100.00
28448;BME280;15675;52.870;-1.416;2023-04-02T04:15:35;101788.97;;;7.47;100.00
28448;BME280;15675;52.870;-1.416;2023-04-02T04:18:14;101812.91;;;7.41;100.00
28448;BME280;15675;52.870;-1.416;2023-04-02T04:20:54;101810.78;;;7.55;100.00
28448;BME280;15675;52.870;-1.416;2023-04-02T04:23:31;101815.09;;;7.56;100.00
28448;BME280;15675;52.870;-1.416;2023-04-02T04:26:11;101814.75;;;7.71;100.00
28448;BME280;15675;52.870;-1.416;2023-04-02T04:29:12;101826.16;;;7.52;100.00
28448;BME280;15675;52.870;-1.416;2023-04-02T04:31:50;101819.25;;;7.51;100.00
28448;BME280;15675;52.870;-1.416;2023-04-02T04:34:29;101822.66;;;7.00;100.00
28448;BME280;15675;52.870;-1.416;2023-04-02T04:36:59;101835.72;;;7.05;100.00
28448;BME280;15675;52.870;-1.416;2023-04-02T04:39:43;101837.19;;;7.22;100.00
28448;BME280;15675;52.870;-1.416;2023-04-02T04:42:17;101845.50;;;7.14;100.00
28448;BME280;15675;52.870;-1.416;2023-04-02T04:44:45;101849.13;;;6.95;100.00
28448;BME280;15675;52.870;-1.416;2023-04-02T04:47:19;101836.97;;;7.40;100.00
28448;BME280;15675;52.870;-1.416;2023-04-02T04:49:53;101846.81;;;7.26;100.00
28448;BME280;15675;52.870;-1.416;2023-04-02T04:54:51;101847.97;;;7.11;100.00
28448;BME280;15675;52.870;-1.416;2023-04-02T05:00:02;101856.88;;;7.43;100.00
28448;BME280;15675;52.870;-1.416;2023-04-02T05:02:45;101866.44;;;7.21;100.00
28448;BME280;15675;52.870;-1.416;2023-04-02T05:05:19;101855.22;;;7.71;100.00
28448;BME280;15675;52.870;-1.416;2023-04-02T05:07:52;101854.38;;;7.46;100.00
28448;BME280;15675;52.870;-1.416;2023-04-02T05:13:02;101883.22;;;7.33;100.00
28448;BME280;15675;52.870;-1.416;2023-04-02T05:18:19;101882.09;;;7.02;100.00
28448;BME280;15675;52.870;-1.416;2023-04-02T05:20:59;101897.19;;;7.15;100.00
28448;BME280;15675;52.870;-1.416;2023-04-02T05:23:29;101903.56;;;7.49;100.00
28448;BME280;15675;52.870;-1.416;2023-04-02T05:26:03;101914.78;;;7.01;100.00
28448;BME280;15675;52.870;-1.416;2023-04-02T05:28:58;101925.63;;;6.93;100.00
28448;BME280;15675;52.870;-1.416;2023-04-02T05:31:45;101918.34;;;6.82;100.00
28448;BME280;15675;52.870;-1.416;2023-04-02T05:34:24;101928.41;;;6.74;100.00
28448;BME280;15675;52.870;-1.416;2023-04-02T05:36:51;101928.63;;;7.03;100.00
28448;BME280;15675;52.870;-1.416;2023-04-02T05:39:21;101939.41;;;7.16;100.00
28448;BME280;15675;52.870;-1.416;2023-04-02T05:41:57;101946.16;;;7.12;100.00
28448;BME280;15675;52.870;-1.416;2023-04-02T05:44:27;101935.94;;;7.15;100.00
28448;BME280;15675;52.870;-1.416;2023-04-02T05:46:58;101946.66;;;7.26;100.00
28448;BME280;15675;52.870;-1.416;2023-04-02T05:49:46;101945.06;;;7.05;100.00
28448;BME280;15675;52.870;-1.416;2023-04-02T05:52:19;101950.41;;;7.10;100.00
28448;BME280;15675;52.870;-1.416;2023-04-02T05:57:39;101949.97;;;7.22;100.00
28448;BME280;15675;52.870;-1.416;2023-04-02T06:00:14;101947.91;;;7.36;100.00
28448;BME280;15675;52.870;-1.416;2023-04-02T06:02:46;101959.66;;;7.05;100.00
28448;BME280;15675;52.870;-1.416;2023-04-02T06:05:27;101953.56;;;7.25;100.00
28448;BME280;15675;52.870;-1.416;2023-04-02T06:07:57;101966.47;;;7.03;100.00
28448;BME280;15675;52.870;-1.416;2023-04-02T06:10:36;101970.78;;;7.26;100.00
28448;BME280;15675;52.870;-1.416;2023-04-02T06:13:07;101969.09;;;7.27;100.00
28448;BME280;15675;52.870;-1.416;2023-04-02T06:15:36;101975.78;;;7.22;100.00
28448;BME280;15675;52.870;-1.416;2023-04-02T06:18:18;101975.72;;;7.43;100.00
28448;BME280;15675;52.870;-1.416;2023-04-02T06:20:44;101979.75;;;7.36;100.00
28448;BME280;15675;52.870;-1.416;2023-04-02T06:23:17;101987.13;;;7.25;100.00
28448;BME280;15675;52.870;-1.416;2023-04-02T06:31:08;101989.72;;;7.03;100.00
28448;BME280;15675;52.870;-1.416;2023-04-02T06:33:35;101993.59;;;7.14;100.00
28448;BME280;15675;52.870;-1.416;2023-04-02T06:36:02;101993.63;;;7.38;100.00
28448;BME280;15675;52.870;-1.416;2023-04-02T06:38:30;101992.31;;;7.03;100.00
28448;BME280;15675;52.870;-1.416;2023-04-02T06:41:03;102001.19;;;7.11;100.00
28448;BME280;15675;52.870;-1.416;2023-04-02T06:43:38;102005.81;;;7.18;100.00
28448;BME280;15675;52.870;-1.416;2023-04-02T06:46:14;102009.59;;;7.28;100.00
28448;BME280;15675;52.870;-1.416;2023-04-02T06:48:42;102008.38;;;7.18;100.00
28448;BME280;15675;52.870;-1.416;2023-04-02T06:51:15;102013.34;;;7.14;100.00
28448;BME280;15675;52.870;-1.416;2023-04-02T06:53:47;102021.28;;;7.18;100.00
28448;BME280;15675;52.870;-1.416;2023-04-02T06:56:37;102028.34;;;7.47;100.00
28448;BME280;15675;52.870;-1.416;2023-04-02T06:59:06;102028.91;;;7.38;100.00
28448;BME280;15675;52.870;-1.416;2023-04-02T07:01:40;102037.66;;;7.41;100.00
28448;BME280;15675;52.870;-1.416;2023-04-02T07:04:06;102042.88;;;7.20;100.00
28448;BME280;15675;52.870;-1.416;2023-04-02T07:06:33;102042.00;;;7.20;100.00
28448;BME280;15675;52.870;-1.416;2023-04-02T07:08:58;102043.53;;;7.15;100.00
28448;BME280;15675;52.870;-1.416;2023-04-02T07:11:24;102051.13;;;7.33;100.00
28448;BME280;15675;52.870;-1.416;2023-04-02T07:13:50;102057.72;;;7.71;100.00
28448;BME280;15675;52.870;-1.416;2023-04-02T07:16:19;102057.16;;;7.80;100.00
28448;BME280;15675;52.870;-1.416;2023-04-02T07:18:45;102060.31;;;7.49;100.00
28448;BME280;15675;52.870;-1.416;2023-04-02T07:21:11;102070.59;;;7.47;100.00
28448;BME280;15675;52.870;-1.416;2023-04-02T07:23:37;102076.28;;;7.61;100.00
28448;BME280;15675;52.870;-1.416;2023-04-02T07:26:04;102076.84;;;7.54;100.00
28448;BME280;15675;52.870;-1.416;2023-04-02T07:28:30;102090.97;;;7.86;100.00
28448;BME280;15675;52.870;-1.416;2023-04-02T07:30:55;102080.88;;;7.92;100.00
28448;BME280;15675;52.870;-1.416;2023-04-02T07:33:24;102089.47;;;7.91;100.00
28448;BME280;15675;52.870;-1.416;2023-04-02T07:35:51;102093.94;;;7.73;100.00
28448;BME280;15675;52.870;-1.416;2023-04-02T07:38:16;102086.69;;;7.63;100.00
28448;BME280;15675;52.870;-1.416;2023-04-02T07:40:42;102097.47;;;7.75;100.00
28448;BME280;15675;52.870;-1.416;2023-04-02T07:43:09;102095.34;;;7.65;100.00
28448;BME280;15675;52.870;-1.416;2023-04-02T07:45:35;102097.34;;;7.49;100.00
28448;BME280;15675;52.870;-1.416;2023-04-02T07:48:08;102098.97;;;7.46;100.00
28448;BME280;15675;52.870;-1.416;2023-04-02T07:50:34;102100.19;;;7.33;100.00
28448;BME280;15675;52.870;-1.416;2023-04-02T07:52:59;102094.69;;;7.25;100.00
28448;BME280;15675;52.870;-1.416;2023-04-02T07:55:25;102100.19;;;7.33;100.00
28448;BME280;15675;52.870;-1.416;2023-04-02T07:57:53;102103.94;;;7.41;100.00
28448;BME280;15675;52.870;-1.416;2023-04-02T08:00:20;102109.19;;;7.42;100.00
28448;BME280;15675;52.870;-1.416;2023-04-02T08:02:47;102109.63;;;7.32;100.00
28448;BME280;15675;52.870;-1.416;2023-04-02T08:05:13;102105.97;;;7.48;100.00
28448;BME280;15675;52.870;-1.416;2023-04-02T08:07:39;102113.94;;;7.54;100.00
28448;BME280;15675;52.870;-1.416;2023-04-02T08:10:07;102114.53;;;7.70;100.00
28448;BME280;15675;52.870;-1.416;2023-04-02T08:12:34;102119.56;;;7.67;100.00
28448;BME280;15675;52.870;-1.416;2023-04-02T08:15:00;102132.22;;;7.83;100.00
28448;BME280;15675;52.870;-1.416;2023-04-02T08:17:26;102138.63;;;7.93;100.00
28448;BME280;15675;52.870;-1.416;2023-04-02T08:19:58;102129.59;;;7.59;100.00
28448;BME280;15675;52.870;-1.416;2023-04-02T08:22:28;102129.31;;;7.51;100.00
28448;BME280;15675;52.870;-1.416;2023-04-02T08:24:55;102136.59;;;7.62;100.00
28448;BME280;15675;52.870;-1.416;2023-04-02T08:27:22;102141.66;;;7.58;100.00
28448;BME280;15675;52.870;-1.416;2023-04-02T08:29:48;102143.16;;;7.76;100.00
28448;BME280;15675;52.870;-1.416;2023-04-02T08:32:14;102141.81;;;7.63;100.00
28448;BME280;15675;52.870;-1.416;2023-04-02T08:34:43;102150.34;;;7.60;100.00
28448;BME280;15675;52.870;-1.416;2023-04-02T08:37:13;102154.03;;;7.67;99.20
28448;BME280;15675;52.870;-1.416;2023-04-02T08:39:38;102161.72;;;7.43;97.26
28448;BME280;15675;52.870;-1.416;2023-04-02T08:42:40;102160.50;;;7.56;97.11
28448;BME280;15675;52.870;-1.416;2023-04-02T08:45:20;102154.69;;;7.62;96.11
28448;BME280;15675;52.870;-1.416;2023-04-02T08:47:48;102171.38;;;7.47;97.05
28448;BME280;15675;52.870;-1.416;2023-04-02T08:50:39;102184.84;;;7.61;97.80
28448;BME280;15675;52.870;-1.416;2023-04-02T08:53:15;102175.59;;;7.68;94.44
28448;BME280;15675;52.870;-1.416;2023-04-02T08:55:57;102195.69;;;7.75;93.04
28448;BME280;15675;52.870;-1.416;2023-04-02T08:58:38;102186.16;;;7.51;93.15
28448;BME280;15675;52.870;-1.416;2023-04-02T09:03:49;102199.44;;;7.60;93.80
28448;BME280;15675;52.870;-1.416;2023-04-02T09:06:18;102207.16;;;7.82;93.04
28448;BME280;15675;52.870;-1.416;2023-04-02T09:08:46;102193.13;;;7.54;93.61
28448;BME280;15675;52.870;-1.416;2023-04-02T09:11:30;102204.94;;;7.68;91.29
28448;BME280;15675;52.870;-1.416;2023-04-02T09:14:02;102202.78;;;7.58;90.69
28448;BME280;15675;52.870;-1.416;2023-04-02T09:16:49;102208.25;;;7.66;92.12
28448;BME280;15675;52.870;-1.416;2023-04-02T09:24:33;102219.91;;;8.00;91.31
28448;BME280;15675;52.870;-1.416;2023-04-02T09:26:59;102216.72;;;7.84;90.52
28448;BME280;15675;52.870;-1.416;2023-04-02T09:29:46;102226.81;;;7.78;89.50
28448;BME280;15675;52.870;-1.416;2023-04-02T09:35:20;102236.25;;;7.99;89.73
28448;BME280;15675;52.870;-1.416;2023-04-02T09:37:46;102220.13;;;8.28;88.89
28448;BME280;15675;52.870;-1.416;2023-04-02T09:40:24;102229.41;;;8.46;88.64
28448;BME280;15675;52.870;-1.416;2023-04-02T09:43:10;102231.94;;;8.44;88.53
28448;BME280;15675;52.870;-1.416;2023-04-02T09:45:37;102234.31;;;8.16;87.43
28448;BME280;15675;52.870;-1.416;2023-04-02T09:48:18;102241.78;;;8.32;88.27
28448;BME280;15675;52.870;-1.416;2023-04-02T09:50:46;102228.31;;;8.17;87.40
28448;BME280;15675;52.870;-1.416;2023-04-02T09:53:29;102244.38;;;8.79;88.08
28448;BME280;15675;52.870;-1.416;2023-04-02T09:56:17;102244.56;;;8.37;83.97
28448;BME280;15675;52.870;-1.416;2023-04-02T09:58:45;102244.97;;;8.48;82.51
28448;BME280;15675;52.870;-1.416;2023-04-02T10:04:01;102248.06;;;8.61;84.34
28448;BME280;15675;52.870;-1.416;2023-04-02T10:06:32;102250.56;;;8.58;84.01
28448;BME280;15675;52.870;-1.416;2023-04-02T10:09:18;102252.06;;;9.02;81.94
28448;BME280;15675;52.870;-1.416;2023-04-02T10:11:44;102252.56;;;8.43;81.36
28448;BME280;15675;52.870;-1.416;2023-04-02T10:14:34;102249.69;;;8.35;79.80
28448;BME280;15675;52.870;-1.416;2023-04-02T10:17:32;102259.59;;;8.94;79.89
28448;BME280;15675;52.870;-1.416;2023-04-02T10:20:05;102268.91;;;9.14;80.01
28448;BME280;15675;52.870;-1.416;2023-04-02T10:22:36;102275.47;;;9.05;79.56
28448;BME280;15675;52.870;-1.416;2023-04-02T10:25:01;102273.34;;;8.93;78.52
28448;BME280;15675;52.870;-1.416;2023-04-02T10:27:47;102271.47;;;8.89;79.92
28448;BME280;15675;52.870;-1.416;2023-04-02T10:33:32;102282.94;;;8.71;82.25
28448;BME280;15675;52.870;-1.416;2023-04-02T10:38:49;102298.81;;;9.30;77.64
28448;BME280;15675;52.870;-1.416;2023-04-02T10:41:32;102288.50;;;9.58;76.25
28448;BME280;15675;52.870;-1.416;2023-04-02T10:55:14;102304.22;;;8.87;76.66
28448;BME280;15675;52.870;-1.416;2023-04-02T10:57:42;102307.16;;;9.22;77.68
28448;BME280;15675;52.870;-1.416;2023-04-02T11:08:26;102307.28;;;9.01;69.79
28448;BME280;15675;52.870;-1.416;2023-04-02T11:11:04;102300.34;;;9.24;70.65
28448;BME280;15675;52.870;-1.416;2023-04-02T11:13:57;102305.31;;;9.19;71.37
28448;BME280;15675;52.870;-1.416;2023-04-02T11:16:26;102321.78;;;9.20;70.45
28448;BME280;15675;52.870;-1.416;2023-04-02T11:32:41;102316.53;;;9.97;66.43
28448;BME280;15675;52.870;-1.416;2023-04-02T11:38:02;102322.31;;;10.44;66.84
28448;BME280;15675;52.870;-1.416;2023-04-02T11:40:59;102334.66;;;10.24;63.83
28448;BME280;15675;52.870;-1.416;2023-04-02T11:46:34;102326.84;;;10.80;61.98
28448;BME280;15675;52.870;-1.416;2023-04-02T11:49:37;102341.84;;;10.33;63.48
28448;BME280;15675;52.870;-1.416;2023-04-02T11:52:09;102346.38;;;9.84;63.31
28448;BME280;15675;52.870;-1.416;2023-04-02T11:54:44;102340.94;;;10.60;63.52
28448;BME280;15675;52.870;-1.416;2023-04-02T11:57:28;102350.22;;;10.51;62.10
28448;BME280;15675;52.870;-1.416;2023-04-02T12:00:24;102356.25;;;9.96;62.82
28448;BME280;15675;52.870;-1.416;2023-04-02T12:03:03;102363.88;;;9.64;63.15
28448;BME280;15675;52.870;-1.416;2023-04-02T12:06:38;102360.13;;;10.09;63.94
28448;BME280;15675;52.870;-1.416;2023-04-02T12:11:47;102349.59;;;10.89;65.87
28448;BME280;15675;52.870;-1.416;2023-04-02T12:14:43;102345.00;;;10.50;63.57
28448;BME280;15675;52.870;-1.416;2023-04-02T12:17:17;102350.19;;;10.23;63.23
28448;BME280;15675;52.870;-1.416;2023-04-02T12:19:47;102351.66;;;10.70;62.07
28448;BME280;15675;52.870;-1.416;2023-04-02T12:22:33;102352.72;;;11.41;61.18
28448;BME280;15675;52.870;-1.416;2023-04-02T12:25:20;102348.53;;;11.46;58.43
28448;BME280;15675;52.870;-1.416;2023-04-02T12:27:47;102353.53;;;11.07;58.75
28448;BME280;15675;52.870;-1.416;2023-04-02T12:30:20;102347.03;;;10.91;58.92
28448;BME280;15675;52.870;-1.416;2023-04-02T12:32:46;102363.84;;;11.03;59.36
28448;BME280;15675;52.870;-1.416;2023-04-02T12:35:32;102369.25;;;11.43;60.10
28448;BME280;15675;52.870;-1.416;2023-04-02T12:37:58;102381.78;;;11.60;62.49
28448;BME280;15675;52.870;-1.416;2023-04-02T12:40:24;102371.59;;;11.34;60.72
28448;BME280;15675;52.870;-1.416;2023-04-02T12:42:50;102369.59;;;10.92;62.96
28448;BME280;15675;52.870;-1.416;2023-04-02T12:45:24;102369.63;;;10.64;62.15
28448;BME280;15675;52.870;-1.416;2023-04-02T12:47:51;102378.50;;;10.71;62.76
28448;BME280;15675;52.870;-1.416;2023-04-02T12:50:18;102375.94;;;11.03;61.78
28448;BME280;15675;52.870;-1.416;2023-04-02T12:52:47;102375.28;;;11.42;60.58
28448;BME280;15675;52.870;-1.416;2023-04-02T12:55:19;102373.38;;;12.03;58.74
28448;BME280;15675;52.870;-1.416;2023-04-02T12:57:45;102360.47;;;11.39;58.58
28448;BME280;15675;52.870;-1.416;2023-04-02T13:05:52;102372.41;;;10.69;62.42
28448;BME280;15675;52.870;-1.416;2023-04-02T13:08:25;102377.97;;;10.83;63.13
28448;BME280;15675;52.870;-1.416;2023-04-02T13:10:57;102381.84;;;10.67;62.09
28448;BME280;15675;52.870;-1.416;2023-04-02T13:13:27;102382.56;;;10.92;61.85
28448;BME280;15675;52.870;-1.416;2023-04-02T13:16:23;102376.41;;;11.20;59.24
28448;BME280;15675;52.870;-1.416;2023-04-02T13:18:49;102375.81;;;11.29;60.04
28448;BME280;15675;52.870;-1.416;2023-04-02T13:23:41;102370.78;;;10.74;59.44
28448;BME280;15675;52.870;-1.416;2023-04-02T13:28:36;102368.72;;;10.93;58.60
28448;BME280;15675;52.870;-1.416;2023-04-02T13:31:02;102365.31;;;11.59;56.88
28448;BME280;15675;52.870;-1.416;2023-04-02T13:33:28;102372.16;;;11.55;57.41
28448;BME280;15675;52.870;-1.416;2023-04-02T13:35:53;102360.81;;;11.52;57.69
28448;BME280;15675;52.870;-1.416;2023-04-02T13:38:19;102367.66;;;11.50;58.12
28448;BME280;15675;52.870;-1.416;2023-04-02T13:40:45;102357.44;;;11.92;57.59
28448;BME280;15675;52.870;-1.416;2023-04-02T13:43:17;102365.06;;;12.20;59.22
28448;BME280;15675;52.870;-1.416;2023-04-02T13:45:46;102366.81;;;11.84;56.80
28448;BME280;15675;52.870;-1.416;2023-04-02T13:48:14;102362.75;;;11.61;57.31
28448;BME280;15675;52.870;-1.416;2023-04-02T13:50:43;102357.25;;;11.50;57.39
28448;BME280;15675;52.870;-1.416;2023-04-02T13:53:18;102369.28;;;11.13;57.87
28448;BME280;15675;52.870;-1.416;2023-04-02T13:55:45;102376.41;;;10.88;58.43
28448;BME280;15675;52.870;-1.416;2023-04-02T13:58:11;102366.25;;;11.28;57.63
28448;BME280;15675;52.870;-1.416;2023-04-02T14:00:36;102369.34;;;11.48;60.88
28448;BME280;15675;52.870;-1.416;2023-04-02T14:03:08;102365.78;;;11.44;60.92
28448;BME280;15675;52.870;-1.416;2023-04-02T14:08:30;102361.81;;;11.58;58.80
28448;BME280;15675;52.870;-1.416;2023-04-02T14:24:26;102361.47;;;11.45;55.70
28448;BME280;15675;52.870;-1.416;2023-04-02T14:29:56;102367.22;;;11.66;54.79
28448;BME280;15675;52.870;-1.416;2023-04-02T14:32:33;102362.84;;;11.30;57.19
28448;BME280;15675;52.870;-1.416;2023-04-02T14:41:04;102356.75;;;11.30;56.13
28448;BME280;15675;52.870;-1.416;2023-04-02T14:46:17;102351.47;;;11.95;55.79
28448;BME280;15675;52.870;-1.416;2023-04-02T14:48:53;102358.34;;;11.58;57.20
28448;BME280;15675;52.870;-1.416;2023-04-02T14:51:26;102360.63;;;11.12;58.93
28448;BME280;15675;52.870;-1.416;2023-04-02T14:54:29;102366.94;;;11.22;58.83
28448;BME280;15675;52.870;-1.416;2023-04-02T14:56:59;102364.09;;;11.13;58.56
28448;BME280;15675;52.870;-1.416;2023-04-02T14:59:41;102367.47;;;11.42;56.56
28448;BME280;15675;52.870;-1.416;2023-04-02T15:05:02;102355.53;;;10.85;58.00
28448;BME280;15675;52.870;-1.416;2023-04-02T15:07:48;102364.75;;;11.71;60.05
28448;BME280;15675;52.870;-1.416;2023-04-02T15:10:29;102368.75;;;11.93;60.35
28448;BME280;15675;52.870;-1.416;2023-04-02T15:12:57;102368.31;;;11.41;57.69
28448;BME280;15675;52.870;-1.416;2023-04-02T15:15:30;102357.25;;;11.16;57.09
28448;BME280;15675;52.870;-1.416;2023-04-02T15:18:00;102345.88;;;11.45;56.94
28448;BME280;15675;52.870;-1.416;2023-04-02T15:20:33;102344.97;;;11.44;57.29
28448;BME280;15675;52.870;-1.416;2023-04-02T15:25:39;102358.97;;;11.16;57.38
28448;BME280;15675;52.870;-1.416;2023-04-02T15:28:18;102359.41;;;10.99;57.18
28448;BME280;15675;52.870;-1.416;2023-04-02T15:30:53;102363.16;;;11.76;60.42
28448;BME280;15675;52.870;-1.416;2023-04-02T15:47:38;102347.25;;;11.30;57.75
28448;BME280;15675;52.870;-1.416;2023-04-02T15:53:00;102365.66;;;11.06;59.30
28448;BME280;15675;52.870;-1.416;2023-04-02T15:55:40;102366.41;;;11.02;60.99
28448;BME280;15675;52.870;-1.416;2023-04-02T16:00:50;102365.94;;;11.17;58.38
28448;BME280;15675;52.870;-1.416;2023-04-02T16:06:26;102362.84;;;11.30;57.34
28448;BME280;15675;52.870;-1.416;2023-04-02T16:11:41;102369.78;;;11.31;58.19
28448;BME280;15675;52.870;-1.416;2023-04-02T16:16:39;102374.16;;;11.00;59.46
28448;BME280;15675;52.870;-1.416;2023-04-02T16:19:16;102376.66;;;10.38;58.89
28448;BME280;15675;52.870;-1.416;2023-04-02T16:21:55;102386.16;;;10.38;60.27
28448;BME280;15675;52.870;-1.416;2023-04-02T16:24:23;102385.75;;;11.12;59.23
28448;BME280;15675;52.870;-1.416;2023-04-02T16:29:39;102387.31;;;11.07;57.01
28448;BME280;15675;52.870;-1.416;2023-04-02T16:37:46;102389.94;;;11.40;56.34